createdAt,value
2016-08-01T19:38:39.418Z,3.4
2016-08-01T19:38:50.171Z,0
2016-08-01T19:38:59.435Z,0
2016-08-01T19:39:10.169Z,0
2016-08-01T19:39:19.418Z,0
2016-08-01T19:39:29.421Z,0
2016-08-01T19:39:40.175Z,0
2016-08-01T19:39:50.171Z,0
2016-08-01T19:40:00.177Z,0.6
2016-08-01T19:40:09.424Z,0.4
2016-08-01T19:40:20.183Z,0.3
2016-08-01T19:40:29.421Z,0
2016-08-01T19:40:39.428Z,0.3
2016-08-01T19:40:50.177Z,0.1
2016-08-01T19:40:59.426Z,0
2016-08-01T19:41:08.674Z,0
2016-08-01T19:41:20.185Z,0.8
2016-08-01T19:41:28.671Z,0.5
2016-08-01T19:41:39.430Z,0.2
2016-08-01T19:41:49.430Z,0.1
2016-08-01T19:41:59.426Z,0
2016-08-01T19:42:29.163Z,21.3
2016-08-01T19:42:39.161Z,21.3
2016-08-01T19:42:49.162Z,21.2
2016-08-01T19:42:59.165Z,21.2
2016-08-01T19:43:09.165Z,21.2
2016-08-01T19:49:32.023Z,17.9
2016-08-01T19:49:42.024Z,17.9
2016-08-01T19:49:52.026Z,17.8
2016-08-01T19:50:02.023Z,17.8
2016-08-01T19:50:12.027Z,17.7
2016-08-01T19:50:22.021Z,17.6
2016-08-01T19:50:32.024Z,17.5
2016-08-01T19:50:42.024Z,17.5
2016-08-01T19:50:52.025Z,17.4
2016-08-01T19:51:02.021Z,17.4
2016-08-01T19:51:12.025Z,17.7
2016-08-01T19:51:22.023Z,17.9
2016-08-01T19:51:32.026Z,18
2016-08-01T19:51:42.022Z,18.3
2016-08-01T19:51:52.022Z,18.4
2016-08-01T19:52:02.023Z,18.4
2016-08-01T19:52:12.022Z,18.3
2016-08-01T19:52:22.022Z,18.2
2016-08-01T19:52:42.024Z,18.1
2016-08-01T19:52:52.026Z,17.9
2016-08-01T19:53:02.032Z,17.8
2016-08-01T19:53:12.030Z,17.8
2016-08-01T19:53:22.024Z,17.7
2016-08-01T19:53:32.024Z,17.7
2016-08-01T19:53:42.026Z,17.6
2016-08-01T19:53:52.025Z,17.4
2016-08-01T19:54:02.028Z,17.4
2016-08-01T19:54:12.029Z,17.3
2016-08-01T19:54:22.027Z,17.1
2016-08-01T19:54:32.029Z,17.1
2016-08-01T19:54:42.028Z,17
2016-08-01T19:54:52.028Z,17
2016-08-01T19:55:02.027Z,17
2016-08-01T19:55:12.032Z,16.8
2016-08-01T19:55:22.030Z,16.7
2016-08-01T19:55:32.031Z,16.7
2016-08-01T19:55:42.029Z,16.6
2016-08-01T19:55:52.031Z,16.6
2016-08-01T19:56:02.033Z,16.5
2016-08-01T19:56:12.043Z,16.5
2016-08-01T19:56:22.035Z,16.4
2016-08-01T19:56:32.032Z,16.3
2016-08-01T19:56:42.033Z,16.3
2016-08-01T19:56:52.034Z,16.3
2016-08-01T19:57:02.035Z,16.3
2016-08-01T19:57:12.035Z,16.2
2016-08-01T19:57:22.037Z,16.1
2016-08-01T19:57:32.037Z,16.1
2016-08-01T19:57:42.039Z,16.2
2016-08-01T19:57:52.038Z,16.1
2016-08-01T19:58:02.051Z,16
2016-08-01T19:58:12.039Z,16
2016-08-01T19:58:22.041Z,16
2016-08-01T19:58:32.045Z,16
2016-08-01T19:58:42.041Z,16
2016-08-01T19:58:52.042Z,16
2016-08-01T19:59:02.045Z,15.9
2016-08-01T19:59:12.041Z,15.9
2016-08-01T19:59:22.049Z,15.9
2016-08-01T19:59:32.046Z,15.9
2016-08-01T19:59:42.049Z,15.9
2016-08-01T19:59:52.046Z,15.9
2016-08-01T20:00:02.048Z,15.9
2016-08-01T20:00:12.049Z,15.8
2016-08-01T20:00:22.050Z,15.8
2016-08-01T20:00:32.050Z,15.8
2016-08-01T20:00:42.051Z,15.8
2016-08-01T20:00:52.053Z,15.8
2016-08-01T20:01:02.052Z,15.8
2016-08-01T20:01:12.054Z,15.8
2016-08-01T20:01:22.054Z,15.7
2016-08-01T20:01:32.057Z,15.7
2016-08-01T20:01:42.056Z,15.7
2016-08-01T20:01:52.056Z,15.6
2016-08-01T20:02:02.058Z,15.7
2016-08-01T20:02:12.060Z,15.7
2016-08-01T20:02:22.058Z,15.7
2016-08-01T20:02:32.061Z,15.7
2016-08-01T20:02:42.060Z,15.7
2016-08-01T20:02:52.059Z,15.7
2016-08-01T20:03:02.061Z,15.7
2016-08-01T20:03:12.063Z,15.5
2016-08-01T20:03:22.064Z,15.6
2016-08-01T20:03:32.071Z,15.5
2016-08-01T20:03:42.064Z,15.6
2016-08-01T20:03:52.066Z,15.6
2016-08-01T20:04:02.066Z,15.6
2016-08-01T20:04:12.067Z,15.6
2016-08-01T20:04:22.070Z,15.6
2016-08-01T20:04:32.067Z,15.6
2016-08-01T20:04:42.070Z,15.6
2016-08-01T20:04:52.071Z,15.5
2016-08-01T20:05:02.073Z,15.5
2016-08-01T20:05:12.077Z,15.4
2016-08-01T20:05:22.072Z,15.5
2016-08-01T20:05:32.073Z,15.5
2016-08-01T20:05:42.075Z,15.5
2016-08-01T20:05:52.079Z,15.5
2016-08-01T20:06:02.076Z,15.5
2016-08-01T20:06:12.076Z,15.5
2016-08-01T20:06:22.077Z,15.5
2016-08-01T20:06:32.080Z,15.4
2016-08-01T20:06:42.079Z,15.5
2016-08-01T20:06:52.082Z,15.5
2016-08-01T20:07:02.080Z,15.4
2016-08-01T20:07:12.083Z,15.4
2016-08-01T20:07:22.083Z,15.5
2016-08-01T20:07:42.086Z,15.4
2016-08-01T20:07:52.087Z,15.4
2016-08-01T20:08:02.136Z,15.5
2016-08-01T20:08:12.089Z,15.5
2016-08-01T20:08:22.089Z,15.5
2016-08-01T20:08:32.093Z,15.5
2016-08-01T20:08:42.091Z,15.4
2016-08-01T20:08:52.091Z,15.5
2016-08-01T20:09:02.092Z,15.5
2016-08-01T20:09:12.090Z,15.4
2016-08-01T20:09:22.146Z,15.5
2016-08-01T20:09:32.094Z,15.5
2016-08-01T20:09:42.094Z,15.4
2016-08-01T20:09:52.097Z,15.5
2016-08-01T20:10:02.098Z,15.4
2016-08-01T20:10:12.098Z,15.4
2016-08-01T20:10:22.099Z,15.4
2016-08-01T20:10:32.100Z,15.4
2016-08-01T20:10:42.108Z,15.4
2016-08-01T20:10:52.099Z,15.4
2016-08-01T20:11:02.100Z,15.3
2016-08-01T20:11:12.104Z,15.4
2016-08-01T20:11:22.103Z,15.4
2016-08-01T20:11:32.108Z,15.4
2016-08-01T20:11:42.104Z,15.3
2016-08-01T20:11:52.106Z,15.4
2016-08-01T20:12:02.104Z,15.3
2016-08-01T20:12:12.106Z,15.3
2016-08-01T20:12:22.109Z,15.3
2016-08-01T20:12:32.112Z,15.3
2016-08-01T20:12:42.108Z,15.2
2016-08-01T20:12:52.111Z,15.2
2016-08-01T20:13:02.112Z,15.2
2016-08-01T20:13:12.113Z,15.3
2016-08-01T20:13:22.111Z,15.2
2016-08-01T20:13:32.115Z,15.2
2016-08-01T20:13:42.116Z,15.3
2016-08-01T20:13:52.115Z,15.3
2016-08-01T20:14:02.118Z,15.3
2016-08-01T20:14:12.117Z,15.3
2016-08-01T20:14:22.118Z,15.2
2016-08-01T20:14:32.119Z,15.2
2016-08-01T20:14:42.119Z,15.2
2016-08-01T20:14:52.118Z,15.1
2016-08-01T20:15:02.121Z,15.2
2016-08-01T20:15:12.122Z,15.2
2016-08-01T20:15:22.124Z,15.2
2016-08-01T20:15:32.126Z,15.2
2016-08-01T20:15:42.124Z,15.2
2016-08-01T20:15:52.125Z,15.1
2016-08-01T20:16:02.125Z,15.2
2016-08-01T20:16:12.125Z,15.2
2016-08-01T20:16:22.126Z,15.1
2016-08-01T20:16:32.128Z,15.2
2016-08-01T20:16:42.131Z,15.1
2016-08-01T20:16:52.133Z,15.1
2016-08-01T20:17:02.132Z,15.2
2016-08-01T20:17:12.131Z,15.1
2016-08-01T20:17:22.132Z,15.1
2016-08-01T20:17:32.132Z,15.1
2016-08-01T20:17:42.135Z,15.2
2016-08-01T20:17:52.138Z,15.1
2016-08-01T20:18:02.136Z,15.1
2016-08-01T20:18:12.137Z,15.1
2016-08-01T20:18:22.139Z,15.1
2016-08-01T20:18:32.138Z,15.1
2016-08-01T20:18:42.140Z,15
2016-08-01T20:18:52.142Z,15
2016-08-01T20:19:02.141Z,15
2016-08-01T20:19:12.144Z,15.1
2016-08-01T20:19:22.144Z,15.1
2016-08-01T20:19:32.145Z,15
2016-08-01T20:19:42.141Z,15.1
2016-08-01T20:19:52.144Z,15.1
2016-08-01T20:20:02.143Z,15
2016-08-01T20:20:12.147Z,15.1
2016-08-01T20:20:22.147Z,15
2016-08-01T20:20:32.146Z,15.1
2016-08-01T20:20:42.147Z,15.1
2016-08-01T20:20:52.148Z,15.1
2016-08-01T20:21:02.147Z,15
2016-08-01T20:21:12.162Z,15
2016-08-01T20:21:22.150Z,15.1
2016-08-01T20:21:32.152Z,15
2016-08-01T20:21:42.153Z,15
2016-08-01T20:21:52.152Z,15
2016-08-01T20:22:02.153Z,15
2016-08-01T20:22:12.154Z,15.1
2016-08-01T20:22:22.154Z,15
2016-08-01T20:22:42.156Z,15
2016-08-01T20:22:52.158Z,15
2016-08-01T20:23:02.158Z,15
2016-08-01T20:23:12.160Z,14.9
2016-08-01T20:23:22.160Z,14.9
2016-08-01T20:23:32.160Z,14.9
2016-08-01T20:23:42.162Z,14.9
2016-08-01T20:23:52.165Z,14.9
2016-08-01T20:24:02.162Z,14.9
2016-08-01T20:24:12.164Z,14.9
2016-08-01T20:24:22.165Z,14.9
2016-08-01T20:24:32.166Z,14.9
2016-08-01T20:24:42.166Z,14.8
2016-08-01T20:24:52.169Z,15
2016-08-01T20:25:02.167Z,14.9
2016-08-01T20:25:12.170Z,14.8
2016-08-01T20:25:22.170Z,15
2016-08-01T20:25:32.172Z,14.9
2016-08-01T20:25:42.172Z,14.9
2016-08-01T20:25:52.174Z,14.9
2016-08-01T20:26:02.174Z,14.9
2016-08-01T20:26:12.174Z,14.8
2016-08-01T20:26:22.174Z,14.9
2016-08-01T20:26:32.225Z,14.8
2016-08-01T20:26:42.177Z,14.8
2016-08-01T20:26:52.178Z,14.9
2016-08-01T20:27:02.177Z,14.9
2016-08-01T20:27:12.177Z,14.9
2016-08-01T20:27:22.177Z,14.9
2016-08-01T20:27:32.181Z,14.8
2016-08-01T20:27:42.183Z,14.9
2016-08-01T20:27:52.180Z,14.9
2016-08-01T20:28:02.185Z,14.9
2016-08-01T20:28:12.183Z,14.9
2016-08-01T20:28:22.184Z,14.9
2016-08-01T20:28:32.183Z,14.9
2016-08-01T20:28:42.184Z,14.9
2016-08-01T20:28:52.187Z,14.9
2016-08-01T20:29:02.185Z,14.8
2016-08-01T20:29:12.186Z,14.9
2016-08-01T20:29:22.189Z,14.8
2016-08-01T20:29:32.190Z,14.9
2016-08-01T20:29:42.190Z,14.9
2016-08-01T20:29:52.190Z,14.9
2016-08-01T20:30:02.191Z,14.9
2016-08-01T20:30:12.192Z,14.9
2016-08-01T20:30:22.194Z,14.9
2016-08-01T20:30:32.193Z,14.8
2016-08-01T20:30:42.202Z,14.8
2016-08-01T20:30:52.196Z,14.9
2016-08-01T20:31:02.197Z,14.8
2016-08-01T20:31:12.197Z,14.9
2016-08-01T20:31:22.198Z,14.8
2016-08-01T20:31:32.198Z,14.9
2016-08-01T20:31:42.200Z,14.8
2016-08-01T20:31:52.200Z,14.9
2016-08-01T20:32:02.203Z,14.8
2016-08-01T20:32:12.201Z,14.9
2016-08-01T20:32:22.203Z,14.8
2016-08-01T20:32:32.202Z,14.9
2016-08-01T20:32:42.203Z,14.9
2016-08-01T20:32:52.208Z,14.8
2016-08-01T20:33:02.206Z,14.9
2016-08-01T20:33:12.206Z,14.9
2016-08-01T20:33:22.207Z,14.9
2016-08-01T20:33:32.208Z,14.9
2016-08-01T20:33:42.213Z,14.9
2016-08-01T20:33:52.214Z,14.8
2016-08-01T20:34:02.210Z,14.8
2016-08-01T20:34:12.266Z,14.9
2016-08-01T20:34:22.211Z,14.8
2016-08-01T20:34:32.212Z,14.8
2016-08-01T20:34:42.212Z,14.8
2016-08-01T20:34:52.211Z,14.9
2016-08-01T20:35:02.215Z,14.8
2016-08-01T20:35:12.213Z,14.8
2016-08-01T20:35:22.215Z,14.8
2016-08-01T20:35:32.217Z,14.8
2016-08-01T20:35:42.220Z,14.8
2016-08-01T20:35:52.216Z,14.8
2016-08-01T20:36:02.217Z,14.7
2016-08-01T20:36:12.219Z,14.7
2016-08-01T20:36:22.222Z,14.8
2016-08-01T20:36:32.225Z,14.8
2016-08-01T20:36:42.222Z,14.8
2016-08-01T20:36:52.224Z,14.8
2016-08-01T20:37:02.223Z,14.8
2016-08-01T20:37:12.223Z,14.8
2016-08-01T20:37:22.222Z,14.8
2016-08-01T20:37:42.227Z,14.8
2016-08-01T20:37:52.229Z,14.8
2016-08-01T20:38:02.232Z,14.8
2016-08-01T20:38:12.230Z,14.8
2016-08-01T20:38:22.227Z,14.8
2016-08-01T20:38:32.230Z,14.7
2016-08-01T20:38:42.228Z,14.8
2016-08-01T20:38:52.230Z,14.8
2016-08-01T20:39:02.232Z,14.8
2016-08-01T20:39:12.241Z,14.8
2016-08-01T20:39:22.234Z,14.8
2016-08-01T20:39:32.234Z,14.7
2016-08-01T20:39:42.234Z,14.8
2016-08-01T20:39:52.234Z,14.8
2016-08-01T20:40:02.234Z,14.8
2016-08-01T20:40:12.237Z,14.8
2016-08-01T20:40:22.238Z,14.9
2016-08-01T20:40:32.238Z,14.8
2016-08-01T20:40:42.242Z,14.8
2016-08-01T20:40:52.241Z,14.8
2016-08-01T20:41:02.241Z,14.8
2016-08-01T20:41:12.240Z,14.8
2016-08-01T20:41:22.244Z,14.7
2016-08-01T20:41:32.241Z,14.8
2016-08-01T20:41:42.245Z,14.8
2016-08-01T20:41:52.248Z,14.8
2016-08-01T20:42:02.245Z,14.7
2016-08-01T20:42:12.247Z,14.8
2016-08-01T20:42:22.244Z,14.7
2016-08-01T20:42:32.246Z,14.8
2016-08-01T20:42:42.257Z,14.7
2016-08-01T20:42:52.247Z,14.7
2016-08-01T20:43:02.250Z,14.7
2016-08-01T20:43:12.250Z,14.8
2016-08-01T20:43:22.251Z,14.7
2016-08-01T20:43:32.263Z,14.7
2016-08-01T20:43:42.251Z,14.7
2016-08-01T20:43:52.252Z,14.8
2016-08-01T20:44:02.258Z,14.7
2016-08-01T20:44:12.253Z,14.8
2016-08-01T20:44:22.257Z,14.8
2016-08-01T20:44:32.254Z,14.8
2016-08-01T20:44:42.257Z,14.7
2016-08-01T20:44:52.258Z,14.8
2016-08-01T20:45:02.260Z,14.7
2016-08-01T20:45:12.257Z,14.8
2016-08-01T20:45:22.259Z,14.7
2016-08-01T20:45:32.260Z,14.7
2016-08-01T20:45:42.261Z,14.7
2016-08-01T20:45:52.259Z,14.7
2016-08-01T20:46:02.262Z,14.7
2016-08-01T20:46:12.262Z,14.7
2016-08-01T20:46:22.263Z,14.7
2016-08-01T20:46:32.263Z,14.7
2016-08-01T20:46:42.265Z,14.8
2016-08-01T20:46:52.266Z,14.8
2016-08-01T20:47:02.267Z,14.7
2016-08-01T20:47:12.266Z,14.7
2016-08-01T20:47:22.267Z,14.7
2016-08-01T20:47:32.269Z,14.7
2016-08-01T20:47:42.270Z,14.6
2016-08-01T20:47:52.269Z,14.7
2016-08-01T20:48:02.268Z,14.7
2016-08-01T20:48:12.270Z,14.7
2016-08-01T20:48:22.272Z,14.7
2016-08-01T20:48:32.272Z,14.7
2016-08-01T20:48:42.279Z,14.7
2016-08-01T20:48:52.274Z,14.7
2016-08-01T20:49:02.274Z,14.8
2016-08-01T20:49:12.276Z,14.7
2016-08-01T20:49:22.274Z,14.8
2016-08-01T20:49:32.277Z,14.7
2016-08-01T20:49:42.278Z,14.7
2016-08-01T20:49:52.277Z,14.7
2016-08-01T20:50:02.278Z,14.8
2016-08-01T20:50:12.280Z,14.7
2016-08-01T20:50:22.280Z,14.8
2016-08-01T20:50:32.285Z,14.6
2016-08-01T20:50:42.280Z,14.7
2016-08-01T20:50:52.283Z,14.8
2016-08-01T20:51:02.286Z,14.8
2016-08-01T20:51:12.282Z,14.8
2016-08-01T20:51:22.286Z,14.7
2016-08-01T20:51:32.291Z,14.7
2016-08-01T20:51:42.284Z,14.7
2016-08-01T20:51:52.289Z,14.7
2016-08-01T20:52:02.286Z,14.7
2016-08-01T20:52:12.286Z,14.6
2016-08-01T20:52:22.290Z,14.7
2016-08-01T20:52:32.291Z,14.7
2016-08-01T20:52:52.291Z,14.7
2016-08-01T20:53:02.291Z,14.7
2016-08-01T20:53:12.294Z,14.7
2016-08-01T20:53:22.297Z,14.7
2016-08-01T20:53:32.295Z,14.8
2016-08-01T20:53:42.295Z,14.7
2016-08-01T20:53:52.295Z,14.7
2016-08-01T20:54:02.295Z,14.7
2016-08-01T20:54:12.298Z,14.7
2016-08-01T20:54:22.295Z,14.8
2016-08-01T20:54:32.297Z,14.7
2016-08-01T20:54:42.299Z,14.7
2016-08-01T20:54:52.312Z,14.7
2016-08-01T20:55:02.300Z,14.7
2016-08-01T20:55:12.299Z,14.7
2016-08-01T20:55:22.308Z,14.8
2016-08-01T20:55:32.302Z,14.7
2016-08-01T20:55:42.308Z,14.7
2016-08-01T20:55:52.304Z,14.8
2016-08-01T20:56:02.305Z,14.8
2016-08-01T20:56:12.307Z,14.7
2016-08-01T20:56:22.307Z,14.8
2016-08-01T20:56:32.307Z,14.8
2016-08-01T20:56:42.307Z,14.8
2016-08-01T20:56:52.308Z,14.7
2016-08-01T20:57:02.307Z,14.7
2016-08-01T20:57:12.308Z,14.7
2016-08-01T20:57:22.311Z,14.7
2016-08-01T20:57:32.311Z,14.7
2016-08-01T20:57:42.312Z,14.8
2016-08-01T20:57:52.311Z,14.8
2016-08-01T20:58:02.313Z,14.7
2016-08-01T20:58:12.313Z,14.7
2016-08-01T20:58:22.314Z,14.7
2016-08-01T20:58:32.316Z,14.7
2016-08-01T20:58:42.315Z,14.8
2016-08-01T20:58:52.315Z,14.7
2016-08-01T20:59:02.321Z,14.7
2016-08-01T20:59:12.317Z,14.7
2016-08-01T20:59:22.316Z,14.7
2016-08-01T20:59:32.320Z,14.7
2016-08-01T20:59:42.327Z,14.7
2016-08-01T20:59:52.319Z,14.8
2016-08-01T21:00:02.320Z,14.7
2016-08-01T21:00:12.327Z,14.7
2016-08-01T21:00:22.323Z,14.7
2016-08-01T21:00:32.325Z,14.8
2016-08-01T21:00:42.327Z,14.7
2016-08-01T21:00:52.324Z,14.7
2016-08-01T21:01:02.325Z,14.7
2016-08-01T21:01:12.329Z,14.7
2016-08-01T21:01:22.326Z,14.8
2016-08-01T21:01:32.327Z,14.7
2016-08-01T21:01:42.326Z,14.7
2016-08-01T21:01:52.330Z,14.7
2016-08-01T21:02:02.331Z,14.7
2016-08-01T21:02:12.330Z,14.8
2016-08-01T21:02:22.329Z,14.7
2016-08-01T21:02:32.332Z,14.7
2016-08-01T21:02:42.329Z,14.7
2016-08-01T21:02:52.334Z,14.7
2016-08-01T21:03:02.335Z,14.7
2016-08-01T21:03:12.334Z,14.7
2016-08-01T21:03:22.333Z,14.7
2016-08-01T21:03:32.335Z,14.7
2016-08-01T21:03:42.335Z,14.8
2016-08-01T21:03:52.337Z,14.7
2016-08-01T21:04:02.339Z,14.7
2016-08-01T21:04:12.337Z,14.7
2016-08-01T21:04:22.339Z,14.7
2016-08-01T21:04:32.340Z,14.7
2016-08-01T21:04:42.340Z,14.7
2016-08-01T21:04:52.344Z,14.7
2016-08-01T21:05:02.343Z,14.7
2016-08-01T21:05:12.341Z,14.7
2016-08-01T21:05:22.342Z,14.7
2016-08-01T21:05:32.345Z,14.7
2016-08-01T21:05:42.345Z,14.7
2016-08-01T21:05:52.346Z,14.7
2016-08-01T21:06:02.346Z,14.7
2016-08-01T21:06:12.348Z,14.7
2016-08-01T21:06:22.350Z,14.8
2016-08-01T21:06:32.347Z,14.7
2016-08-01T21:06:42.347Z,14.7
2016-08-01T21:06:52.349Z,14.8
2016-08-01T21:07:02.351Z,14.7
2016-08-01T21:07:12.357Z,14.8
2016-08-01T21:07:22.351Z,14.8
2016-08-01T21:07:32.352Z,14.7
2016-08-01T21:07:42.356Z,14.7
2016-08-01T21:08:02.355Z,14.7
2016-08-01T21:08:12.357Z,14.8
2016-08-01T21:08:22.358Z,14.8
2016-08-01T21:08:32.362Z,14.8
2016-08-01T21:08:42.360Z,14.8
2016-08-01T21:08:52.359Z,14.8
2016-08-01T21:09:02.357Z,14.8
2016-08-01T21:09:12.364Z,14.9
2016-08-01T21:09:22.359Z,14.8
2016-08-01T21:09:32.361Z,14.8
2016-08-01T21:09:42.366Z,14.8
2016-08-01T21:09:52.361Z,14.8
2016-08-01T21:10:02.362Z,14.8
2016-08-01T21:10:12.362Z,14.8
2016-08-01T21:10:22.364Z,14.7
2016-08-01T21:10:32.365Z,14.8
2016-08-01T21:10:42.368Z,14.8
2016-08-01T21:10:52.367Z,14.8
2016-08-01T21:11:02.369Z,14.8
2016-08-01T21:11:12.366Z,14.8
2016-08-01T21:11:22.368Z,14.8
2016-08-01T21:11:32.368Z,14.8
2016-08-01T21:11:42.368Z,14.8
2016-08-01T21:11:52.371Z,14.8
2016-08-01T21:12:02.370Z,14.8
2016-08-01T21:12:12.372Z,14.8
2016-08-01T21:12:22.371Z,14.9
2016-08-01T21:12:32.377Z,14.8
2016-08-01T21:12:42.371Z,14.8
2016-08-01T21:12:52.374Z,14.9
2016-08-01T21:13:02.375Z,14.9
2016-08-01T21:13:12.378Z,14.9
2016-08-01T21:13:22.375Z,14.8
2016-08-01T21:13:32.378Z,14.8
2016-08-01T21:13:42.380Z,14.8
2016-08-01T21:13:52.379Z,14.9
2016-08-01T21:14:02.378Z,14.9
2016-08-01T21:14:12.377Z,14.9
2016-08-01T21:14:22.386Z,14.9
2016-08-01T21:14:32.381Z,14.9
2016-08-01T21:14:42.381Z,14.8
2016-08-01T21:14:52.385Z,14.9
2016-08-01T21:15:02.384Z,14.9
2016-08-01T21:15:12.383Z,14.9
2016-08-01T21:15:22.390Z,14.9
2016-08-01T21:15:32.387Z,14.8
2016-08-01T21:15:42.386Z,14.9
2016-08-01T21:15:52.387Z,14.9
2016-08-01T21:16:02.395Z,14.9
2016-08-01T21:16:12.390Z,14.9
2016-08-01T21:16:22.390Z,14.9
2016-08-01T21:16:32.389Z,14.9
2016-08-01T21:16:42.390Z,14.9
2016-08-01T21:16:52.390Z,14.9
2016-08-01T21:17:02.391Z,14.9
2016-08-01T21:17:12.394Z,14.9
2016-08-01T21:17:22.391Z,14.9
2016-08-01T21:17:32.393Z,14.9
2016-08-01T21:17:42.398Z,14.8
2016-08-01T21:17:52.395Z,14.9
2016-08-01T21:18:02.396Z,14.9
2016-08-01T21:18:12.401Z,14.9
2016-08-01T21:18:22.398Z,14.9
2016-08-01T21:18:32.398Z,14.9
2016-08-01T21:18:42.398Z,14.9
2016-08-01T21:18:52.400Z,14.9
2016-08-01T21:19:02.401Z,14.9
2016-08-01T21:19:12.400Z,14.9
2016-08-01T21:19:22.400Z,15
2016-08-01T21:19:32.403Z,14.9
2016-08-01T21:19:42.403Z,14.9
2016-08-01T21:19:52.403Z,15
2016-08-01T21:20:02.407Z,15
2016-08-01T21:20:12.405Z,14.9
2016-08-01T21:20:22.406Z,14.9
2016-08-01T21:20:32.414Z,14.9
2016-08-01T21:20:42.408Z,14.9
2016-08-01T21:20:52.409Z,14.9
2016-08-01T21:21:02.411Z,15
2016-08-01T21:21:12.412Z,14.9
2016-08-01T21:21:22.408Z,14.9
2016-08-01T21:21:32.411Z,14.9
2016-08-01T21:21:42.412Z,14.9
2016-08-01T21:21:52.414Z,15
2016-08-01T21:22:02.418Z,14.9
2016-08-01T21:22:12.415Z,14.9
2016-08-01T21:22:22.417Z,14.9
2016-08-01T21:22:32.413Z,14.9
2016-08-01T21:22:42.415Z,14.9
2016-08-01T21:23:02.419Z,14.9
2016-08-01T21:23:12.417Z,14.9
2016-08-01T21:23:22.418Z,14.9
2016-08-01T21:23:32.422Z,15
2016-08-01T21:23:42.420Z,15
2016-08-01T21:23:52.421Z,15
2016-08-01T21:24:02.422Z,15
2016-08-01T21:24:12.424Z,14.9
2016-08-01T21:24:22.431Z,15
2016-08-01T21:24:32.423Z,15.1
2016-08-01T21:24:42.424Z,15.1
2016-08-01T21:24:52.426Z,15
2016-08-01T21:25:02.426Z,15
2016-08-01T21:25:12.430Z,15.1
2016-08-01T21:25:22.430Z,15
2016-08-01T21:25:32.430Z,15
2016-08-01T21:25:42.429Z,15.1
2016-08-01T21:25:52.429Z,15
2016-08-01T21:26:02.430Z,15.1
2016-08-01T21:26:12.431Z,15
2016-08-01T21:26:22.434Z,15
2016-08-01T21:26:32.430Z,15
2016-08-01T21:26:42.433Z,15
2016-08-01T21:26:52.436Z,15
2016-08-01T21:27:02.437Z,15
2016-08-01T21:27:12.437Z,15
2016-08-01T21:27:22.435Z,15
2016-08-01T21:27:32.439Z,15
2016-08-01T21:27:42.441Z,15.1
2016-08-01T21:27:52.442Z,15
2016-08-01T21:28:02.440Z,15
2016-08-01T21:28:12.465Z,15.1
2016-08-01T21:28:22.439Z,15
2016-08-01T21:28:32.441Z,15
2016-08-01T21:28:42.444Z,15
2016-08-01T21:28:52.441Z,15.1
2016-08-01T21:29:02.443Z,15
2016-08-01T21:29:12.448Z,15
2016-08-01T21:29:22.444Z,15.1
2016-08-01T21:29:32.448Z,15.1
2016-08-01T21:29:42.446Z,15.1
2016-08-01T21:29:52.450Z,15
2016-08-01T21:30:02.448Z,15.1
2016-08-01T21:30:12.449Z,15
2016-08-01T21:30:22.452Z,15.1
2016-08-01T21:30:32.452Z,15.1
2016-08-01T21:30:42.450Z,15.1
2016-08-01T21:30:52.460Z,15.1
2016-08-01T21:31:02.453Z,15
2016-08-01T21:31:12.449Z,15.1
2016-08-01T21:31:22.624Z,15.1
2016-08-01T21:31:32.457Z,15.1
2016-08-01T21:31:42.454Z,15.1
2016-08-01T21:31:52.455Z,15.1
2016-08-01T21:32:02.457Z,15.2
2016-08-01T21:32:12.458Z,15.1
2016-08-01T21:32:22.460Z,15.1
2016-08-01T21:32:32.462Z,15.1
2016-08-01T21:32:42.462Z,15.1
2016-08-01T21:32:52.462Z,15.1
2016-08-01T21:33:02.461Z,15.1
2016-08-01T21:33:12.461Z,15.1
2016-08-01T21:33:22.462Z,15.1
2016-08-01T21:33:32.465Z,15.2
2016-08-01T21:33:42.463Z,15.2
2016-08-01T21:33:52.465Z,15.1
2016-08-01T21:34:02.467Z,15.2
2016-08-01T21:34:12.466Z,15.1
2016-08-01T21:34:22.469Z,15.2
2016-08-01T21:34:32.466Z,15.2
2016-08-01T21:34:42.467Z,15.2
2016-08-01T21:34:52.471Z,15.1
2016-08-01T21:35:02.470Z,15.2
2016-08-01T21:35:12.471Z,15.1
2016-08-01T21:35:22.476Z,15.2
2016-08-01T21:35:32.474Z,15.2
2016-08-01T21:35:42.474Z,15.1
2016-08-01T21:35:52.473Z,15.2
2016-08-01T21:36:02.476Z,15.1
2016-08-01T21:36:12.478Z,15.2
2016-08-01T21:36:22.477Z,15.1
2016-08-01T21:36:32.478Z,15.1
2016-08-01T21:36:42.476Z,15.1
2016-08-01T21:36:52.477Z,15.2
2016-08-01T21:37:02.480Z,15.1
2016-08-01T21:37:12.480Z,15.1
2016-08-01T21:37:22.478Z,15.1
2016-08-01T21:37:32.481Z,15.2
2016-08-01T21:37:42.484Z,15.2
2016-08-01T21:37:52.489Z,15.1
2016-08-01T21:38:12.485Z,15.1
2016-08-01T21:38:22.485Z,15.1
2016-08-01T21:38:32.488Z,15.1
2016-08-01T21:38:42.490Z,15.2
2016-08-01T21:38:52.489Z,15.2
2016-08-01T21:39:02.497Z,15.1
2016-08-01T21:39:12.490Z,15.1
2016-08-01T21:39:22.494Z,15.1
2016-08-01T21:39:32.492Z,15.2
2016-08-01T21:39:42.490Z,15.2
2016-08-01T21:39:52.491Z,15.1
2016-08-01T21:40:02.493Z,15.1
2016-08-01T21:40:12.492Z,15.2
2016-08-01T21:40:22.497Z,15.2
2016-08-01T21:40:32.495Z,15.1
2016-08-01T21:40:42.495Z,15.2
2016-08-01T21:40:52.501Z,15.2
2016-08-01T21:41:02.499Z,15.2
2016-08-01T21:41:12.498Z,15.2
2016-08-01T21:41:22.498Z,15.1
2016-08-01T21:41:32.497Z,15.1
2016-08-01T21:41:42.500Z,15.2
2016-08-01T21:41:52.502Z,15.2
2016-08-01T21:42:02.501Z,15.2
2016-08-01T21:42:12.502Z,15.2
2016-08-01T21:42:22.502Z,15.2
2016-08-01T21:42:32.504Z,15.1
2016-08-01T21:42:42.505Z,15.2
2016-08-01T21:42:52.505Z,15.2
2016-08-01T21:43:02.505Z,15.2
2016-08-01T21:43:12.510Z,15.2
2016-08-01T21:43:22.508Z,15.2
2016-08-01T21:43:32.508Z,15.3
2016-08-01T21:43:42.510Z,15.2
2016-08-01T21:43:52.510Z,15.3
2016-08-01T21:44:02.512Z,15.2
2016-08-01T21:44:12.513Z,15.3
2016-08-01T21:44:22.513Z,15.2
2016-08-01T21:44:32.512Z,15.2
2016-08-01T21:44:42.515Z,15.3
2016-08-01T21:44:52.515Z,15.1
2016-08-01T21:45:02.517Z,15.2
2016-08-01T21:45:12.519Z,15.2
2016-08-01T21:45:22.519Z,15.1
2016-08-01T21:45:32.518Z,15.3
2016-08-01T21:45:42.518Z,15.2
2016-08-01T21:45:52.518Z,15.2
2016-08-01T21:46:02.521Z,15.2
2016-08-01T21:46:12.524Z,15.2
2016-08-01T21:46:22.520Z,15.2
2016-08-01T21:46:32.536Z,15.2
2016-08-01T21:46:42.522Z,15.2
2016-08-01T21:46:52.523Z,15.1
2016-08-01T21:47:02.525Z,15.2
2016-08-01T21:47:12.528Z,15.2
2016-08-01T21:47:22.527Z,15.2
2016-08-01T21:47:32.529Z,15.2
2016-08-01T21:47:42.528Z,15.2
2016-08-01T21:47:52.531Z,15.2
2016-08-01T21:48:02.527Z,15.1
2016-08-01T21:48:12.531Z,15.1
2016-08-01T21:48:22.531Z,15.2
2016-08-01T21:48:32.532Z,15.2
2016-08-01T21:48:42.531Z,15.2
2016-08-01T21:48:52.536Z,15.1
2016-08-01T21:49:02.533Z,15.1
2016-08-01T21:49:12.535Z,15.1
2016-08-01T21:49:22.535Z,15.2
2016-08-01T21:49:32.539Z,15.2
2016-08-01T21:49:42.538Z,15.1
2016-08-01T21:49:52.537Z,15.2
2016-08-01T21:50:02.546Z,15.2
2016-08-01T21:50:12.539Z,15.2
2016-08-01T21:50:22.542Z,15.2
2016-08-01T21:50:32.542Z,15.2
2016-08-01T21:50:42.542Z,15.2
2016-08-01T21:50:52.544Z,15.2
2016-08-01T21:51:02.551Z,15.2
2016-08-01T21:51:12.552Z,15.2
2016-08-01T21:51:22.547Z,15.2
2016-08-01T21:51:32.546Z,15.2
2016-08-01T21:51:42.547Z,15.2
2016-08-01T21:51:52.548Z,15.2
2016-08-01T21:52:02.547Z,15.2
2016-08-01T21:52:12.549Z,15.2
2016-08-01T21:52:22.550Z,15.2
2016-08-01T21:52:32.553Z,15.2
2016-08-01T21:52:42.549Z,15.2
2016-08-01T21:52:52.555Z,15.1
2016-08-01T21:53:12.554Z,15.2
2016-08-01T21:53:22.557Z,15.2
2016-08-01T21:53:32.554Z,15.2
2016-08-01T21:53:42.559Z,15.2
2016-08-01T21:53:52.556Z,15.2
2016-08-01T21:54:02.557Z,15.2
2016-08-01T21:54:12.559Z,15.2
2016-08-01T21:54:22.557Z,15.2
2016-08-01T21:54:32.559Z,15.2
2016-08-01T21:54:42.559Z,15.2
2016-08-01T21:54:52.561Z,15.2
2016-08-01T21:55:02.562Z,15.1
2016-08-01T21:55:12.564Z,15.2
2016-08-01T21:55:22.563Z,15.2
2016-08-01T21:55:32.564Z,15.2
2016-08-01T21:55:42.572Z,15.2
2016-08-01T21:55:52.569Z,15.2
2016-08-01T21:56:02.568Z,15.2
2016-08-01T21:56:12.566Z,15.2
2016-08-01T21:56:22.571Z,15.2
2016-08-01T21:56:32.567Z,15.2
2016-08-01T21:56:42.569Z,15.2
2016-08-01T21:56:52.573Z,15.2
2016-08-01T21:57:02.572Z,15.2
2016-08-01T21:57:12.572Z,15.2
2016-08-01T21:57:22.572Z,15.2
2016-08-01T21:57:32.573Z,15.2
2016-08-01T21:57:42.586Z,15.2
2016-08-01T21:57:52.578Z,15.1
2016-08-01T21:58:02.576Z,15.2
2016-08-01T21:58:12.575Z,15.1
2016-08-01T21:58:22.578Z,15.2
2016-08-01T21:58:32.575Z,15.2
2016-08-01T21:58:42.576Z,15.1
2016-08-01T21:58:52.580Z,15.1
2016-08-01T21:59:02.581Z,15.1
2016-08-01T21:59:12.580Z,15.2
2016-08-01T21:59:22.583Z,15.1
2016-08-01T21:59:32.582Z,15.1
2016-08-01T21:59:42.582Z,15.1
2016-08-01T21:59:52.584Z,15.1
2016-08-01T22:00:02.585Z,15.2
2016-08-01T22:00:12.586Z,15.2
2016-08-01T22:00:22.588Z,15.1
2016-08-01T22:00:32.586Z,15.1
2016-08-01T22:00:42.587Z,15.2